Time;durP1;ratioP1;P1;durP2;ratioP2;P2;SDS_P1;SDS_P2;PMS_P1;PMS_P2;Temp;Humidity;BMP_temperature;BMP_pressure;BME280_temperature;BME280_humidity;BME280_pressure;Samples;Min_cycle;Max_cycle;Signal;HPM_P1;HPM_P2
2022/08/20 00:01:22;;;;;;;5.55;1.90;;;24.60;99.90;;;;;;1812577;78;21146;-82
2022/08/20 00:03:53;;;;;;;6.47;2.15;;;24.60;99.90;;;;;;1841803;77;21181;-82
2022/08/20 00:06:24;;;;;;;4.45;1.90;;;24.70;99.90;;;;;;1840986;78;21090;-82
2022/08/20 00:08:55;;;;;;;6.35;1.70;;;24.80;99.90;;;;;;1842104;76;21255;-82
2022/08/20 00:11:28;;;;;;;3.95;1.65;;;24.80;99.90;;;;;;1850710;76;21179;-82
2022/08/20 00:14:01;;;;;;;4.05;1.55;;;24.90;99.90;;;;;;1861699;76;21134;-82
2022/08/20 00:16:35;;;;;;;3.37;1.55;;;24.90;99.90;;;;;;1856551;76;21230;-81
2022/08/20 00:19:08;;;;;;;2.95;1.27;;;24.90;99.90;;;;;;1821325;78;21153;-81
2022/08/20 00:21:40;;;;;;;4.83;1.55;;;24.80;99.90;;;;;;1775620;79;21153;-80
2022/08/20 00:24:11;;;;;;;3.25;1.40;;;24.80;99.90;;;;;;1805438;78;21248;-80
2022/08/20 00:26:42;;;;;;;3.37;1.45;;;24.80;99.90;;;;;;1812459;78;21220;-81
2022/08/20 00:29:15;;;;;;;3.05;1.75;;;24.80;99.90;;;;;;1849756;76;21309;-82
2022/08/20 00:31:47;;;;;;;2.27;1.00;;;24.80;99.90;;;;;;1834947;77;21317;-81
2022/08/20 00:34:20;;;;;;;2.75;1.07;;;24.80;99.90;;;;;;1806942;78;21183;-81
2022/08/20 00:36:51;;;;;;;3.22;1.00;;;24.70;99.90;;;;;;1836150;75;21145;-80
2022/08/20 00:39:25;;;;;;;2.60;1.07;;;24.60;99.90;;;;;;1855970;75;21102;-80
2022/08/20 00:41:56;;;;;;;2.95;1.20;;;24.60;99.90;;;;;;1847543;76;21183;-79
2022/08/20 00:44:28;;;;;;;2.40;1.00;;;24.50;99.90;;;;;;1842966;76;21136;-79
2022/08/20 00:46:59;;;;;;;3.10;1.10;;;24.50;99.90;;;;;;1812607;78;21245;-79
2022/08/20 00:49:34;;;;;;;1.85;0.80;;;24.50;99.90;;;;;;1841744;76;21183;-79
2022/08/20 00:52:10;;;;;;;4.72;1.22;;;24.40;99.90;;;;;;1844415;76;21806;-77
2022/08/20 00:54:44;;;;;;;3.27;1.30;;;24.40;99.90;;;;;;1849985;76;21108;-80
2022/08/20 00:57:16;;;;;;;4.08;1.37;;;24.40;99.90;;;;;;1857720;76;21733;-79
2022/08/20 00:59:49;;;;;;;2.00;1.30;;;24.40;99.90;;;;;;1814579;78;21285;-79
2022/08/20 01:02:24;;;;;;;4.15;1.30;;;24.40;99.90;;;;;;1803770;78;21621;-79
2022/08/20 01:04:57;;;;;;;2.17;1.10;;;24.40;99.90;;;;;;1826576;78;21262;-80
2022/08/20 01:07:33;;;;;;;4.45;1.45;;;24.50;99.90;;;;;;1843542;76;21512;-79
2022/08/20 01:10:04;;;;;;;2.12;0.95;;;24.50;99.90;;;;;;1842091;76;21178;-79
2022/08/20 01:12:37;;;;;;;4.15;1.20;;;24.50;99.90;;;;;;1847908;76;22098;-79
2022/08/20 01:15:13;;;;;;;2.80;1.40;;;24.60;99.90;;;;;;1813722;78;21616;-78
2022/08/20 01:17:45;;;;;;;2.27;1.10;;;24.60;99.90;;;;;;1815420;78;21141;-79
2022/08/20 01:20:17;;;;;;;3.22;1.30;;;24.60;99.90;;;;;;1816291;78;21128;-79
2022/08/20 01:25:34;;;;;;;2.55;1.30;;;24.60;99.90;;;;;;1833138;77;21214;-78
2022/08/20 01:28:05;;;;;;;2.27;1.10;;;24.60;99.90;;;;;;1832618;77;21929;-79
2022/08/20 01:30:38;;;;;;;3.10;1.30;;;24.70;99.90;;;;;;1841625;77;21144;-78
2022/08/20 01:33:08;;;;;;;2.67;1.55;;;24.70;99.90;;;;;;1840215;77;21637;-80
2022/08/20 01:35:41;;;;;;;2.80;1.40;;;24.70;99.90;;;;;;1808471;77;21191;-79
2022/08/20 01:38:13;;;;;;;2.55;1.30;;;24.70;99.90;;;;;;1852612;77;21180;-80
2022/08/20 01:40:46;;;;;;;5.33;1.50;;;24.70;99.90;;;;;;1848283;77;21161;-79
2022/08/20 01:43:23;;;;;;;3.45;1.92;;;24.70;99.90;;;;;;1839230;77;21136;-79
2022/08/20 01:45:55;;;;;;;4.17;2.50;;;24.80;99.90;;;;;;1816646;78;21209;-80
2022/08/20 01:48:29;;;;;;;3.95;3.27;;;24.70;99.90;;;;;;1842013;77;21215;-79
2022/08/20 01:51:04;;;;;;;7.47;3.53;;;24.80;99.90;;;;;;1849490;77;21273;-78
2022/08/20 01:53:38;;;;;;;8.25;5.28;;;24.80;99.90;;;;;;1836339;77;21629;-79
2022/08/20 01:56:13;;;;;;;6.90;5.53;;;24.90;99.90;;;;;;1846080;75;21145;-79
2022/08/20 01:58:48;;;;;;;12.85;6.70;;;24.90;99.90;;;;;;1856269;77;21210;-80
2022/08/20 02:01:22;;;;;;;7.83;5.92;;;24.90;99.90;;;;;;1844276;77;21087;-77
2022/08/20 02:03:54;;;;;;;6.35;5.05;;;24.90;99.90;;;;;;1837209;76;21251;-78
2022/08/20 02:06:28;;;;;;;5.62;5.08;;;24.90;99.90;;;;;;1857743;77;21538;-82
2022/08/20 02:09:01;;;;;;;8.00;7.20;;;24.90;99.90;;;;;;1833856;78;21663;-78
2022/08/20 02:11:33;;;;;;;11.75;9.78;;;24.90;99.90;;;;;;1843443;76;21599;-77
2022/08/20 02:14:08;;;;;;;9.38;8.45;;;24.90;99.90;;;;;;1811984;78;21692;-83
2022/08/20 02:16:41;;;;;;;7.87;5.90;;;24.80;99.90;;;;;;1778418;79;21256;-82
2022/08/20 02:19:16;;;;;;;7.20;5.15;;;24.90;99.90;;;;;;1799360;78;21178;-83
2022/08/20 02:21:50;;;;;;;7.40;5.33;;;25.00;99.90;;;;;;1804989;78;21185;-82
2022/08/20 02:24:23;;;;;;;8.03;6.10;;;24.90;99.90;;;;;;1811709;78;21189;-82
2022/08/20 02:26:55;;;;;;;7.95;4.12;;;25.00;99.90;;;;;;1787436;79;21161;-83
2022/08/20 02:29:26;;;;;;;5.75;3.72;;;25.00;99.90;;;;;;1779419;79;21649;-84
2022/08/20 02:31:57;;;;;;;6.85;4.47;;;25.00;99.90;;;;;;1782179;79;21140;-82
2022/08/20 02:34:29;;;;;;;5.67;3.62;;;25.00;99.90;;;;;;1846145;76;22089;-83
2022/08/20 02:37:01;;;;;;;6.25;2.27;;;25.10;99.90;;;;;;1807716;78;21364;-84
2022/08/20 02:39:32;;;;;;;5.05;1.75;;;25.10;99.90;;;;;;1808729;77;21087;-83
2022/08/20 02:42:04;;;;;;;5.50;2.10;;;25.10;99.90;;;;;;1801206;78;21193;-81
2022/08/20 02:44:35;;;;;;;4.12;2.10;;;25.10;99.90;;;;;;1811105;78;21139;-82
2022/08/20 02:47:07;;;;;;;4.08;1.57;;;25.20;99.90;;;;;;1837961;77;21154;-83
2022/08/20 02:49:38;;;;;;;3.00;1.25;;;25.10;99.90;;;;;;1827281;78;21256;-82
2022/08/20 02:52:08;;;;;;;2.85;1.35;;;25.10;99.90;;;;;;1844431;76;21134;-82
2022/08/20 02:54:40;;;;;;;4.03;1.75;;;25.10;99.90;;;;;;1848399;76;21137;-83
2022/08/20 02:57:13;;;;;;;4.83;2.15;;;25.00;99.90;;;;;;1844046;76;21611;-82
2022/08/20 02:59:44;;;;;;;3.47;1.27;;;25.00;99.90;;;;;;1821524;78;21185;-83
2022/08/20 03:02:16;;;;;;;3.10;1.60;;;25.00;99.90;;;;;;1810975;78;21151;-84
2022/08/20 03:04:47;;;;;;;4.40;1.40;;;25.00;99.90;;;;;;1836323;77;22165;-82
2022/08/20 03:07:23;;;;;;;2.87;1.20;;;24.90;99.90;;;;;;1836264;77;21258;-82
2022/08/20 03:09:52;;;;;;;3.33;1.10;;;24.90;99.90;;;;;;1834899;77;21216;-82
2022/08/20 03:12:28;;;;;;;3.47;1.02;;;24.80;99.90;;;;;;1833560;77;21247;-81
2022/08/20 03:15:06;;;;;;;2.83;1.20;;;24.80;99.90;;;;;;1842145;76;21216;-83
2022/08/20 03:17:39;;;;;;;5.62;1.25;;;24.80;99.90;;;;;;1849565;76;21237;-82
2022/08/20 03:20:10;;;;;;;2.10;1.20;;;24.70;99.90;;;;;;1843854;76;21251;-83
2022/08/20 03:22:47;;;;;;;2.37;1.10;;;24.70;99.90;;;;;;1842705;76;21172;-82
2022/08/20 03:25:18;;;;;;;2.80;1.00;;;24.80;99.90;;;;;;1844405;76;21146;-82
2022/08/20 03:27:49;;;;;;;2.52;1.00;;;24.80;99.90;;;;;;1843416;76;21142;-82
2022/08/20 03:30:23;;;;;;;2.67;1.62;;;24.80;99.90;;;;;;1820208;78;21786;-82
2022/08/20 03:32:55;;;;;;;4.62;2.90;;;24.90;99.90;;;;;;1782456;79;21221;-83
2022/08/20 03:35:30;;;;;;;4.75;4.05;;;25.00;99.90;;;;;;1810298;78;21205;-84
2022/08/20 03:38:03;;;;;;;6.03;4.10;;;25.00;99.90;;;;;;1783409;79;21959;-82
2022/08/20 03:40:37;;;;;;;4.22;3.42;;;25.10;99.90;;;;;;1806517;75;21098;-83
2022/08/20 03:43:09;;;;;;;2.98;1.62;;;25.10;99.90;;;;;;1859925;72;21149;-82
2022/08/20 03:45:44;;;;;;;2.10;1.22;;;25.10;99.90;;;;;;1850406;76;21157;-82
2022/08/20 03:48:17;;;;;;;5.17;1.17;;;25.20;99.90;;;;;;1848237;76;21174;-83
2022/08/20 03:50:50;;;;;;;3.67;1.70;;;25.20;99.90;;;;;;1851468;76;21155;-82
2022/08/20 03:53:21;;;;;;;2.70;1.47;;;25.20;99.90;;;;;;1822141;78;21138;-83
2022/08/20 03:55:54;;;;;;;3.33;1.40;;;25.30;99.90;;;;;;1804725;79;21116;-82
2022/08/20 03:58:30;;;;;;;2.63;1.30;;;25.40;99.90;;;;;;1815950;78;21234;-82
2022/08/20 04:01:02;;;;;;;4.50;1.62;;;25.50;99.90;;;;;;1848262;76;21082;-83
2022/08/20 04:03:34;;;;;;;3.98;1.70;;;25.50;99.90;;;;;;1845596;76;21118;-82
2022/08/20 04:06:09;;;;;;;4.70;2.17;;;25.60;99.90;;;;;;1842804;76;21150;-82
2022/08/20 04:08:41;;;;;;;5.35;2.08;;;25.60;99.90;;;;;;1811935;78;21142;-82
2022/08/20 04:11:12;;;;;;;3.17;1.77;;;25.70;99.90;;;;;;1780494;79;21253;-82
2022/08/20 04:13:43;;;;;;;5.22;2.20;;;25.70;99.90;;;;;;1782533;80;21190;-82
2022/08/20 04:16:19;;;;;;;3.08;1.65;;;25.80;99.90;;;;;;1782437;80;21201;-81
2022/08/20 04:18:50;;;;;;;;;;;25.80;99.90;;;;;;1807185;79;21229;-82
2022/08/20 04:21:23;;;;;;;4.10;2.10;;;25.80;99.90;;;;;;1803019;79;20237;-82
2022/08/20 04:23:55;;;;;;;6.20;2.50;;;25.90;99.90;;;;;;1803235;79;21301;-82
2022/08/20 04:26:27;;;;;;;4.50;2.47;;;25.90;99.90;;;;;;1810379;78;21255;-80
2022/08/20 04:28:58;;;;;;;4.83;2.65;;;25.90;99.90;;;;;;1798901;79;21169;-82
2022/08/20 04:31:32;;;;;;;5.45;2.58;;;26.00;99.90;;;;;;1809791;78;21164;-82
2022/08/20 04:34:06;;;;;;;7.45;2.62;;;26.00;99.90;;;;;;1771146;80;21291;-82
2022/08/20 04:36:37;;;;;;;4.85;2.60;;;26.00;99.90;;;;;;1769591;81;21156;-82
2022/08/20 04:39:08;;;;;;;4.50;2.20;;;25.90;99.90;;;;;;1816248;78;21153;-82
2022/08/20 04:41:43;;;;;;;6.42;3.25;;;26.00;99.90;;;;;;1823497;78;21162;-82
2022/08/20 04:44:13;;;;;;;4.87;2.80;;;26.00;99.90;;;;;;1819412;75;21150;-84
2022/08/20 04:46:44;;;;;;;5.58;2.87;;;26.00;99.90;;;;;;1817796;76;21209;-83
2022/08/20 04:49:18;;;;;;;6.33;3.20;;;26.00;99.90;;;;;;1776284;79;21260;-83
2022/08/20 04:51:56;;;;;;;4.60;3.02;;;26.10;99.90;;;;;;1811458;78;21183;-82
2022/08/20 04:54:27;;;;;;;7.08;3.42;;;26.00;99.90;;;;;;1802759;79;21177;-82
2022/08/20 04:57:00;;;;;;;9.00;3.27;;;26.00;99.90;;;;;;1803076;78;21169;-84
2022/08/20 04:59:36;;;;;;;5.20;3.42;;;26.10;99.90;;;;;;1801892;78;21216;-82
2022/08/20 05:02:04;;;;;;;7.47;3.72;;;26.20;99.90;;;;;;1808404;78;21146;-82
2022/08/20 05:04:36;;;;;;;7.42;3.65;;;26.10;99.90;;;;;;1768840;81;21158;-82
2022/08/20 05:07:07;;;;;;;6.37;3.50;;;26.20;99.90;;;;;;1794675;79;21650;-81
2022/08/20 05:09:39;;;;;;;6.80;4.00;;;26.20;99.90;;;;;;1833887;78;21095;-81
2022/08/20 05:12:14;;;;;;;11.90;4.12;;;26.30;99.90;;;;;;1839383;78;21217;-82
2022/08/20 05:14:51;;;;;;;7.10;3.47;;;26.30;99.90;;;;;;1839538;78;21087;-80
2022/08/20 05:17:18;;;;;;;6.35;3.60;;;26.40;99.90;;;;;;1860345;76;21199;-82
2022/08/20 05:19:50;;;;;;;6.33;3.47;;;26.40;99.90;;;;;;1854509;76;21095;-81
2022/08/20 05:22:21;;;;;;;7.42;3.58;;;26.50;99.90;;;;;;1850370;77;21177;-81
2022/08/20 05:24:55;;;;;;;8.98;3.70;;;26.60;99.90;;;;;;1842931;76;21108;-82
2022/08/20 05:27:25;;;;;;;6.22;3.27;;;26.60;99.90;;;;;;1838652;78;21617;-82
2022/08/20 05:29:59;;;;;;;5.03;3.02;;;26.60;99.90;;;;;;1837046;78;21264;-82
2022/08/20 05:32:31;;;;;;;8.03;3.98;;;26.70;99.90;;;;;;1837889;78;21627;-82
2022/08/20 05:35:06;;;;;;;7.20;3.47;;;26.70;99.90;;;;;;1838462;78;21252;-82
2022/08/20 05:37:44;;;;;;;5.42;3.52;;;26.80;99.90;;;;;;1839301;78;21456;-83
2022/08/20 05:40:15;;;;;;;6.65;3.72;;;26.80;99.90;;;;;;1776846;79;21129;-82
2022/08/20 05:42:46;;;;;;;6.85;3.90;;;26.90;99.90;;;;;;1777500;80;21229;-82
2022/08/20 05:45:20;;;;;;;7.08;3.75;;;27.00;99.90;;;;;;1773335;81;21224;-82
2022/08/20 05:47:54;;;;;;;8.95;4.05;;;27.00;99.90;;;;;;1864148;75;21193;-82
2022/08/20 05:50:25;;;;;;;5.60;3.50;;;27.00;99.90;;;;;;1805635;79;21190;-82
2022/08/20 05:52:57;;;;;;;4.28;3.50;;;27.00;99.90;;;;;;1841700;76;22196;-82
2022/08/20 05:55:32;;;;;;;9.05;3.83;;;27.00;99.90;;;;;;1839370;76;21558;-83
2022/08/20 05:58:04;;;;;;;6.75;3.70;;;27.00;99.90;;;;;;1838582;78;21149;-82
2022/08/20 06:00:36;;;;;;;6.22;3.25;;;27.00;99.90;;;;;;1839983;78;21176;-82
2022/08/20 06:05:39;;;;;;;5.90;3.15;;;27.10;99.90;;;;;;1839121;76;21693;-82
2022/08/20 06:08:12;;;;;;;7.75;3.92;;;27.20;99.90;;;;;;1814016;76;21130;-82
2022/08/20 06:10:43;;;;;;;6.22;4.00;;;27.30;99.90;;;;;;1815198;78;21164;-81
2022/08/20 06:13:14;;;;;;;6.70;3.70;;;27.30;99.90;;;;;;1825266;78;21128;-82
2022/08/20 06:15:45;;;;;;;8.15;3.90;;;27.40;99.90;;;;;;1817340;78;21173;-83
2022/08/20 06:18:17;;;;;;;9.50;4.00;;;27.50;99.90;;;;;;1813977;78;21676;-83
2022/08/20 06:20:49;;;;;;;10.15;3.70;;;27.50;99.90;;;;;;1811034;78;21580;-84
2022/08/20 06:23:22;;;;;;;6.97;3.98;;;27.60;99.90;;;;;;1814380;79;21121;-82
2022/08/20 06:25:53;;;;;;;6.67;3.27;;;27.60;99.90;;;;;;1814494;79;21654;-82
2022/08/20 06:28:24;;;;;;;9.28;4.10;;;27.70;99.90;;;;;;1804951;79;21648;-83
2022/08/20 06:30:55;;;;;;;9.18;3.65;;;27.60;99.90;;;;;;1815996;78;21110;-82
2022/08/20 06:33:26;;;;;;;6.37;3.62;;;27.70;99.90;;;;;;1825271;76;21607;-82
2022/08/20 06:35:57;;;;;;;7.50;3.80;;;27.70;99.90;;;;;;1815486;78;21090;-81
2022/08/20 06:38:28;;;;;;;6.92;3.47;;;27.70;99.90;;;;;;1813181;78;21233;-82
2022/08/20 06:40:59;;;;;;;9.05;4.17;;;27.80;99.90;;;;;;1815161;79;21129;-83
2022/08/20 06:43:30;;;;;;;6.67;3.67;;;27.90;99.90;;;;;;1814941;79;21153;-84
2022/08/20 06:46:02;;;;;;;6.42;3.30;;;27.90;99.90;;;;;;1814499;78;21556;-82
2022/08/20 06:48:33;;;;;;;6.03;3.58;;;28.00;99.90;;;;;;1815228;78;21163;-83
2022/08/20 06:51:05;;;;;;;10.48;3.70;;;28.00;99.90;;;;;;1818872;76;21114;-83
2022/08/20 06:53:36;;;;;;;7.87;3.58;;;28.10;99.90;;;;;;1825594;78;21155;-82
2022/08/20 06:56:07;;;;;;;7.08;3.37;;;28.10;99.90;;;;;;1815429;78;21179;-81
2022/08/20 06:58:38;;;;;;;7.97;3.65;;;28.20;99.90;;;;;;1815766;78;21189;-81
2022/08/20 07:01:12;;;;;;;8.60;3.50;;;28.20;99.90;;;;;;1817024;78;21165;-83
2022/08/20 07:03:43;;;;;;;7.42;3.72;;;28.20;99.90;;;;;;1814357;79;21177;-81
2022/08/20 07:06:16;;;;;;;7.45;3.90;;;28.30;99.90;;;;;;1818532;78;21109;-83
2022/08/20 07:08:47;;;;;;;8.23;4.00;;;28.30;99.90;;;;;;1829612;78;21209;-82
2022/08/20 07:11:19;;;;;;;6.15;3.50;;;28.30;99.90;;;;;;1804912;79;21248;-81
2022/08/20 07:13:52;;;;;;;9.53;4.53;;;28.30;99.90;;;;;;1804165;78;21135;-81
2022/08/20 07:16:22;;;;;;;8.55;3.67;;;28.30;99.90;;;;;;1798033;78;21236;-83
2022/08/20 07:18:54;;;;;;;11.40;4.12;;;28.40;99.90;;;;;;1791476;78;21185;-84
2022/08/20 07:21:25;;;;;;;8.60;4.17;;;28.40;99.90;;;;;;1804032;78;21200;-81
2022/08/20 07:23:56;;;;;;;7.75;3.95;;;28.40;99.90;;;;;;1792282;79;21174;-82
2022/08/20 07:26:27;;;;;;;10.65;4.42;;;28.40;99.90;;;;;;1772031;79;21123;-83
2022/08/20 07:28:58;;;;;;;8.73;4.62;;;28.30;99.90;;;;;;1804205;79;21236;-82
2022/08/20 07:34:03;;;;;;;15.45;4.58;;;28.30;99.90;;;;;;1803954;79;21202;-82
2022/08/20 07:36:35;;;;;;;9.78;4.28;;;28.30;99.90;;;;;;1772832;80;21204;-83
2022/08/20 07:39:06;;;;;;;8.28;4.15;;;28.20;99.90;;;;;;1775073;81;21188;-83
2022/08/20 07:41:37;;;;;;;8.30;4.17;;;28.20;99.90;;;;;;1756441;81;21720;-83
2022/08/20 07:44:09;;;;;;;11.70;4.20;;;28.20;99.90;;;;;;1801447;78;21260;-82
2022/08/20 07:46:40;;;;;;;10.43;4.67;;;28.20;99.90;;;;;;1802835;79;21150;-83
2022/08/20 07:49:10;;;;;;;9.73;4.55;;;28.10;99.90;;;;;;1807084;78;21158;-82
2022/08/20 07:51:44;;;;;;;12.03;4.53;;;28.10;99.90;;;;;;1803465;75;21171;-81
2022/08/20 07:54:21;;;;;;;12.60;4.78;;;28.10;99.90;;;;;;1814406;77;21047;-83
2022/08/20 07:56:49;;;;;;;10.20;4.85;;;28.10;99.90;;;;;;1805231;79;21232;-82
2022/08/20 07:59:23;;;;;;;11.68;4.35;;;28.10;99.90;;;;;;1821466;78;21091;-81
2022/08/20 08:02:09;;;;;;;8.05;4.20;;;28.10;99.90;;;;;;1780301;79;21118;-81
2022/08/20 08:04:41;;;;;;;10.23;4.50;;;28.10;99.90;;;;;;1803307;78;21177;-81
2022/08/20 08:07:15;;;;;;;9.85;4.10;;;28.20;99.90;;;;;;1789489;80;21149;-82
2022/08/20 08:09:52;;;;;;;8.08;3.45;;;28.20;99.90;;;;;;1803075;79;21188;-83
2022/08/20 08:12:33;;;;;;;9.20;4.35;;;28.20;99.90;;;;;;1840440;78;21212;-83
2022/08/20 08:15:06;;;;;;;8.73;4.35;;;28.20;99.90;;;;;;1840518;77;21125;-80
2022/08/20 08:17:38;;;;;;;6.60;3.95;;;28.10;99.90;;;;;;1825971;78;21609;-82
2022/08/20 08:20:11;;;;;;;8.93;3.75;;;28.20;99.90;;;;;;1841401;78;21189;-82
2022/08/20 08:22:43;;;;;;;10.40;3.90;;;28.10;99.90;;;;;;1840285;78;21121;-81
2022/08/20 08:25:24;;;;;;;10.78;4.17;;;28.10;99.90;;;;;;1841130;78;21090;-81
2022/08/20 08:28:02;;;;;;;10.60;4.90;;;28.10;99.90;;;;;;1835675;78;21184;-82
2022/08/20 08:30:33;;;;;;;10.53;4.20;;;28.10;99.90;;;;;;1841185;77;21383;-84
2022/08/20 08:35:54;;;;;;;11.53;4.50;;;28.10;99.90;;;;;;1844068;76;21118;-82
2022/08/20 08:38:28;;;;;;;8.98;3.92;;;28.10;99.90;;;;;;1840574;76;21191;-82
2022/08/20 08:41:06;;;;;;;9.58;3.98;;;28.10;99.90;;;;;;1837471;78;21142;-83
2022/08/20 08:43:37;;;;;;;11.35;4.45;;;28.10;99.90;;;;;;1835488;78;21681;-80
2022/08/20 08:46:10;;;;;;;12.15;6.33;;;28.10;99.90;;;;;;1836851;78;21122;-83
2022/08/20 08:48:44;;;;;;;11.38;6.20;;;28.10;99.90;;;;;;1786090;78;21260;-83
2022/08/20 08:51:18;;;;;;;13.03;4.55;;;28.10;99.90;;;;;;1823752;78;21247;-82
2022/08/20 08:53:53;;;;;;;12.68;4.90;;;28.10;99.90;;;;;;1837948;78;21267;-84
2022/08/20 08:56:26;;;;;;;15.05;4.60;;;28.10;99.90;;;;;;1845567;76;21087;-85
2022/08/20 08:59:00;;;;;;;9.78;3.80;;;28.10;99.90;;;;;;1862467;77;21169;-84
2022/08/20 09:01:33;;;;;;;11.25;4.45;;;28.10;99.90;;;;;;1823308;78;21617;-82
2022/08/20 09:04:05;;;;;;;13.70;4.53;;;28.10;99.90;;;;;;1832019;76;21156;-83
2022/08/20 09:06:39;;;;;;;11.60;4.33;;;28.10;99.90;;;;;;1813884;78;21217;-81
2022/08/20 09:09:11;;;;;;;14.98;4.83;;;28.10;99.90;;;;;;1841689;77;21158;-83
2022/08/20 09:11:44;;;;;;;10.18;4.58;;;28.10;99.90;;;;;;1842592;78;21141;-82
2022/08/20 09:14:17;;;;;;;12.20;4.47;;;28.10;99.90;;;;;;1843533;77;21071;-82
2022/08/20 09:16:49;;;;;;;10.95;4.30;;;28.10;99.90;;;;;;1843804;78;21212;-82
2022/08/20 09:19:22;;;;;;;10.88;4.30;;;28.10;99.90;;;;;;1857496;76;21093;-82
2022/08/20 09:21:58;;;;;;;9.30;4.60;;;28.10;99.90;;;;;;1851610;76;21196;-82
2022/08/20 09:24:26;;;;;;;12.47;4.60;;;28.00;99.90;;;;;;1844873;78;21118;-83
2022/08/20 09:27:00;;;;;;;9.20;4.17;;;28.00;99.90;;;;;;1844613;78;21092;-83
2022/08/20 09:29:31;;;;;;;14.15;5.40;;;28.00;99.90;;;;;;1826929;78;21129;-83
2022/08/20 09:32:09;;;;;;;9.10;4.62;;;28.00;99.90;;;;;;1780245;80;21106;-82
2022/08/20 09:34:58;;;;;;;9.48;5.70;;;28.00;99.90;;;;;;1807240;79;21155;-83
2022/08/20 09:37:37;;;;;;;10.00;4.50;;;28.00;99.90;;;;;;1811966;79;21288;-83
2022/08/20 09:40:09;;;;;;;8.75;5.17;;;28.00;99.90;;;;;;1817204;78;21239;-82
2022/08/20 09:42:43;;;;;;;11.28;4.90;;;28.00;99.90;;;;;;1814381;78;21102;-81
2022/08/20 09:45:15;;;;;;;10.35;4.33;;;28.00;99.90;;;;;;1778367;81;21194;-82
2022/08/20 09:47:47;;;;;;;11.08;4.78;;;28.00;99.90;;;;;;1803435;78;21214;-82
2022/08/20 09:50:28;;;;;;;14.93;5.67;;;28.00;99.90;;;;;;1831970;78;21659;-82
2022/08/20 09:53:01;;;;;;;10.98;5.10;;;27.90;99.90;;;;;;1782535;79;21217;-82
2022/08/20 09:55:34;;;;;;;11.28;4.58;;;27.90;99.90;;;;;;1801454;77;21123;-83
2022/08/20 10:00:49;;;;;;;13.03;6.22;;;27.90;99.90;;;;;;1873159;73;21052;-82
2022/08/20 10:03:21;;;;;;;11.30;5.42;;;27.90;99.90;;;;;;1875139;74;21123;-83
2022/08/20 10:05:55;;;;;;;15.32;5.92;;;27.90;99.90;;;;;;1862042;76;21131;-81
2022/08/20 10:08:28;;;;;;;10.68;5.20;;;27.90;99.90;;;;;;1839483;77;21127;-82
2022/08/20 10:10:59;;;;;;;10.82;5.50;;;27.90;99.90;;;;;;1840911;76;21111;-82
2022/08/20 10:13:34;;;;;;;11.08;5.72;;;27.80;99.90;;;;;;1863453;76;21126;-80
2022/08/20 10:16:15;;;;;;;12.73;6.17;;;27.80;99.90;;;;;;1860041;76;21605;-81
2022/08/20 10:18:48;;;;;;;11.30;5.37;;;27.80;99.90;;;;;;1820272;78;21570;-84
2022/08/20 10:21:18;;;;;;;13.38;6.03;;;27.80;99.90;;;;;;1847762;75;21112;-83
2022/08/20 10:23:53;;;;;;;11.48;5.67;;;27.80;99.90;;;;;;1866550;75;21641;-81
2022/08/20 10:26:29;;;;;;;13.28;5.90;;;27.80;99.90;;;;;;1852290;76;21535;-80
2022/08/20 10:28:58;;;;;;;10.98;6.65;;;27.80;99.90;;;;;;1841723;76;21240;-80
2022/08/20 10:31:35;;;;;;;13.60;6.83;;;27.80;99.90;;;;;;1864728;76;21154;-81
2022/08/20 10:34:06;;;;;;;13.05;6.60;;;27.80;99.90;;;;;;1820709;76;21231;-82
2022/08/20 10:36:38;;;;;;;12.95;6.45;;;27.80;99.90;;;;;;1854465;75;21154;-81
2022/08/20 10:39:09;;;;;;;16.50;7.40;;;27.70;99.90;;;;;;1848220;76;21100;-82
2022/08/20 10:41:44;;;;;;;13.48;6.30;;;27.70;99.90;;;;;;1836860;76;21172;-82
2022/08/20 10:44:12;;;;;;;12.40;6.95;;;27.70;99.90;;;;;;1856553;75;21079;-82
2022/08/20 10:46:44;;;;;;;13.03;6.60;;;27.70;99.90;;;;;;1855806;75;21151;-82
2022/08/20 10:49:15;;;;;;;15.68;7.08;;;27.70;99.90;;;;;;1839755;77;21103;-81
2022/08/20 10:51:46;;;;;;;13.13;6.40;;;27.70;99.90;;;;;;1832435;76;21190;-83
2022/08/20 10:54:20;;;;;;;11.93;6.47;;;27.70;99.90;;;;;;1951840;73;21048;-82
2022/08/20 10:56:50;;;;;;;12.68;6.58;;;27.70;99.90;;;;;;1901578;73;21131;-82
2022/08/20 10:59:21;;;;;;;16.10;7.08;;;27.70;99.90;;;;;;1909465;73;21206;-82
2022/08/20 11:01:53;;;;;;;9.00;6.42;;;27.70;99.90;;;;;;1923250;73;21135;-82
2022/08/20 11:04:30;;;;;;;17.15;7.67;;;27.70;99.90;;;;;;1920116;75;21123;-81
2022/08/20 11:07:06;;;;;;;11.12;6.92;;;27.70;99.90;;;;;;1917778;75;21072;-82
2022/08/20 11:09:37;;;;;;;13.90;6.55;;;27.70;99.90;;;;;;1915703;75;21155;-82
2022/08/20 11:12:09;;;;;;;12.43;6.87;;;27.70;99.90;;;;;;1916272;73;21701;-83
2022/08/20 11:14:40;;;;;;;15.60;6.78;;;27.70;99.90;;;;;;1919203;75;21127;-83
2022/08/20 11:17:11;;;;;;;13.53;7.50;;;27.70;99.90;;;;;;1919622;75;21174;-83
2022/08/20 11:19:45;;;;;;;12.75;6.25;;;27.60;99.90;;;;;;1904130;75;21154;-82
2022/08/20 11:22:16;;;;;;;13.68;6.10;;;27.60;99.90;;;;;;1919313;75;21080;-81
2022/08/20 11:24:48;;;;;;;13.83;6.92;;;27.60;99.90;;;;;;1920985;75;21610;-82
2022/08/20 11:27:22;;;;;;;17.17;6.62;;;27.60;99.90;;;;;;1908497;75;21162;-83
2022/08/20 11:30:01;;;;;;;14.33;6.42;;;27.60;99.90;;;;;;1915233;75;21170;-83
2022/08/20 11:32:37;;;;;;;14.05;6.30;;;27.60;99.90;;;;;;1894588;75;21067;-82
2022/08/20 11:35:08;;;;;;;15.50;7.08;;;27.60;99.90;;;;;;1929253;73;21119;-83
2022/08/20 11:37:40;;;;;;;16.07;7.60;;;27.60;99.90;;;;;;1917801;73;21165;-82
2022/08/20 11:40:12;;;;;;;13.83;6.70;;;27.60;99.90;;;;;;1904289;73;21166;-81
2022/08/20 11:42:49;;;;;;;12.65;6.78;;;27.60;99.90;;;;;;1911660;73;21151;-81
2022/08/20 11:45:21;;;;;;;;;;;27.60;99.90;;;;;;1906061;73;21162;-81
2022/08/20 11:47:52;;;;;;;18.62;7.85;;;27.60;99.90;;;;;;1900054;75;20204;-81
2022/08/20 11:50:24;;;;;;;10.98;6.47;;;27.60;99.90;;;;;;1927086;73;21069;-84
2022/08/20 11:52:55;;;;;;;12.40;6.25;;;27.60;99.90;;;;;;1907360;73;21119;-83
2022/08/20 11:55:27;;;;;;;12.90;7.12;;;27.60;99.90;;;;;;1896038;75;21141;-82
2022/08/20 11:57:59;;;;;;;12.20;6.87;;;27.60;99.90;;;;;;1918544;74;21154;-82
2022/08/20 12:00:35;;;;;;;19.73;6.83;;;27.60;99.90;;;;;;1915995;73;21163;-82
2022/08/20 12:03:07;;;;;;;14.73;6.65;;;27.60;99.90;;;;;;1906497;75;21201;-81
2022/08/20 12:05:42;;;;;;;15.35;7.12;;;27.60;99.90;;;;;;1918730;75;21661;-81
2022/08/20 12:08:22;;;;;;;13.32;6.67;;;27.50;99.90;;;;;;1889053;76;21821;-82
2022/08/20 12:10:57;;;;;;;13.50;6.92;;;27.50;99.90;;;;;;1902353;75;21170;-81
2022/08/20 12:13:34;;;;;;;16.05;6.78;;;27.50;99.90;;;;;;1906902;75;21123;-82
2022/08/20 12:16:07;;;;;;;10.98;6.80;;;27.50;99.90;;;;;;1894848;75;21173;-81
2022/08/20 12:18:38;;;;;;;10.58;6.10;;;27.50;99.90;;;;;;1914744;75;21384;-85
2022/08/20 12:21:09;;;;;;;13.45;6.47;;;27.50;99.90;;;;;;1913179;75;21190;-82
2022/08/20 12:23:40;;;;;;;11.73;6.45;;;27.50;99.90;;;;;;1909892;73;21208;-82
2022/08/20 12:26:12;;;;;;;16.20;7.42;;;27.50;99.90;;;;;;1901143;75;21188;-83
2022/08/20 12:28:43;;;;;;;12.15;7.17;;;27.50;99.90;;;;;;1876833;76;21593;-83
2022/08/20 12:31:14;;;;;;;14.63;6.40;;;27.50;99.90;;;;;;1886967;75;21569;-82
2022/08/20 12:33:45;;;;;;;16.05;7.25;;;27.60;99.90;;;;;;1885779;76;21651;-82
2022/08/20 12:36:16;;;;;;;13.00;6.25;;;27.50;99.90;;;;;;1880727;75;21097;-82
2022/08/20 12:38:47;;;;;;;11.90;5.72;;;27.50;99.90;;;;;;1880720;75;21188;-81
2022/08/20 12:41:18;;;;;;;18.85;6.08;;;27.50;99.90;;;;;;1885060;75;21158;-81
2022/08/20 12:43:49;;;;;;;11.68;5.85;;;27.60;99.90;;;;;;1877468;75;21160;-81
2022/08/20 12:46:23;;;;;;;11.57;6.05;;;27.50;99.90;;;;;;1883012;76;21220;-82
2022/08/20 12:48:54;;;;;;;12.25;5.03;;;27.50;99.90;;;;;;1886036;75;21630;-83
2022/08/20 12:51:31;;;;;;;14.75;5.97;;;27.50;99.90;;;;;;1872878;76;21099;-82
2022/08/20 12:54:02;;;;;;;12.68;5.92;;;27.50;99.90;;;;;;1882224;76;21177;-83
2022/08/20 12:56:40;;;;;;;13.05;5.65;;;27.50;99.90;;;;;;1874268;76;21171;-82
2022/08/20 12:59:30;;;;;;;14.93;5.70;;;27.50;99.90;;;;;;1879778;76;21147;-83
2022/08/20 13:02:01;;;;;;;11.38;5.12;;;27.50;99.90;;;;;;1904634;74;21123;-85
2022/08/20 13:04:33;;;;;;;6.20;2.05;;;27.50;99.90;;;;;;1905717;74;21122;-85
2022/08/20 13:07:05;;;;;;;5.53;1.80;;;27.30;99.90;;;;;;1909669;74;21768;-86
2022/08/20 13:09:38;;;;;;;5.42;1.60;;;27.10;99.90;;;;;;1838566;77;21188;-85
2022/08/20 13:12:09;;;;;;;5.17;1.30;;;26.70;99.90;;;;;;1918358;73;21141;-84
2022/08/20 13:14:41;;;;;;;5.65;1.65;;;26.50;99.90;;;;;;1920750;74;21187;-84
2022/08/20 13:17:12;;;;;;;8.28;2.50;;;26.20;99.90;;;;;;1838086;77;21607;-84
2022/08/20 13:19:45;;;;;;;5.87;1.77;;;25.90;99.90;;;;;;1905916;74;21217;-84
2022/08/20 13:22:18;;;;;;;2.67;1.45;;;25.60;99.90;;;;;;1915316;74;21080;-84
2022/08/20 13:24:49;;;;;;;3.08;1.32;;;25.40;99.90;;;;;;1864235;76;21099;-83